Flugplatz Krems Langenlois (LOAG)

Hier findest Du alle Informationen zum Flugplatz Krems Langenlois (LOAG).

Informationen für Piloten zum Flugplatz Krems Langenlois

Hier findest Du alle relevanten Informationen, die Du als Pilot benötigst, um Krems Langenlois anzufliegen.

Flugplatz: Krems Langenlois ICAO-Code: LOAG
Frequenz Turm: 122,700 Mhz GAFOR Gebiet: -
Frequenz Ground: 122,700 Mhz Mogas: ja
Platzrunde: N 2000 ft Landegebühr: 9 €
Platzhöhe: Sunrise: 06:28 Uhr UTC
Pisten: 11/29 - 900 m x 10 m, ASPH Sunset: 15:05 Uhr UTC

Mitglieder, die in Krems Langenlois fliegen

Flugwetter am Flugplatz Krems Langenlois

Die METAR Information stammen aus EDDM (283.77 km entfernt).

METAR Code:
2021/12/02 10:20
EDDM 021020Z 25017KT 9999 -RADZ FEW018 SCT045 05/01 Q1000 NOSIG

Flugschulen am Flugplatz Krems Langenlois

Am Flugplatz Krems Langenlois gibt es leider keine Flugschule.

Jetzt anmelden

Passwort vergessen

Umfrage Archiv

Welche Navigations-App nutzt Ihr im Cockpit

SkyDemon
49.2 %
VFRnav
21.3 %
Ich nutze eine andere App
19.7 %
Ich nutze gar keine App
4.9 %
EasyVFR
4.4 %
ForeFlight
0.5 %
Stimmen: 183 | Diskussion (45)
Anzeige: Roland Aircraft
Statistik Alle Mitglieder

Aktuell sind 41 Besucher online, davon 1 Mitglied und 40 Gäste.


Mitglieder online:
Dusty72 

Anzeige: Pocket FMS